全部
Kongsted [G] Airport (Kongsted, Zealand, Denmark) EKKS 天气
There is no TAF data available at EKKS. Showing TAF data for EKRK (23 mi N).
RKE终端机场天气预报(EKKS无数据)
| Date | Time (CEST) | Flight Rules | Wind Dir. | Speed | Type | Height AGL (ft) | Visibility | Remarks | ||||||
|---|---|---|---|---|---|---|---|---|---|---|---|---|---|---|
| 05-五月 | 07:00 | VFR | 290° | 4 kt | Clouds and Visibility are OK | >= 6 miles | ||||||||
| 05-五月 | 06:00 | VFR | 290° | 4 kt | Clouds and Visibility are OK | >= 6 miles | ||||||||
| 05-五月 | 05:00 | VFR | 290° | 4 kt | Clouds and Visibility are OK | >= 6 miles | ||||||||
| 05-五月 | 04:00 | VFR | 290° | 4 kt | Clouds and Visibility are OK | >= 6 miles | ||||||||
| 05-五月 | 03:00 | VFR | 290° | 4 kt | Clouds and Visibility are OK | >= 6 miles | ||||||||
| 05-五月 | 02:00 | VFR | 290° | 4 kt | Clouds and Visibility are OK | >= 6 miles | ||||||||
| 05-五月 | 01:00 | VFR | 290° | 4 kt | Clouds and Visibility are OK | >= 6 miles | ||||||||
| 05-五月 | 00:00 | VFR | 290° | 4 kt | Clouds and Visibility are OK | >= 6 miles | ||||||||
There is no METAR data available at EKKS. Showing METAR data for EKRK (23 mi N).
RKE近期METAR历史数据(EKKS无数据)
| Date | Time (CEST) | Flight Rules | Wind Dir. | Speed | Type | Height AGL (ft) | Visibility | Temp (°C) | Temp (°F) | Dew Point (°C) | Dew Point (°F) | Rel. Humid. | Pressure | Density Altitude | Remarks |
|---|---|---|---|---|---|---|---|---|---|---|---|---|---|---|---|
| 05-五月 | 00:20 | VFR | 290° | 3 kt | 10000 meters | 6° | 42° | 4° | 39° | 87% | 1012 mb | -898 ft | |||
| 04-五月 | 23:50 | VFR | 300° | 2 kt | 10000 meters | 7° | 44° | 3° | 37° | 76% | 1012 mb | -778 ft | |||
| 04-五月 | 23:20 | VFR | 300° | 2 kt | 10000 meters | 7° | 44° | 3° | 37° | 76% | 1012 mb | -778 ft | |||
| 04-五月 | 22:50 | VFR | 270° | 1 kt | 10000 meters | 8° | 46° | 4° | 39° | 76% | 1012 mb | -658 ft | |||
| 04-五月 | 22:20 | VFR | 250° | 1 kt | 10000 meters | 9° | 48° | 4° | 39° | 71% | 1012 mb | -538 ft | |||
| 04-五月 | 21:50 | VFR | 290° | 3 kt | 10000 meters | 9° | 48° | 4° | 39° | 71% | 1012 mb | -538 ft | |||
| 04-五月 | 21:20 | VFR | 250° | 2 kt | 10000 meters | 9° | 48° | 4° | 39° | 71% | 1012 mb | -538 ft | |||
| 04-五月 | 20:50 | VFR | 290° | 5 kt | 10000 meters | 10° | 50° | 4° | 39° | 66% | 1012 mb | -418 ft | |||
| 04-五月 | 20:20 | VFR | 290° | 5 kt | 10000 meters | 12° | 53° | 4° | 39° | 58% | 1011 mb | -149 ft | |||
| 04-五月 | 19:50 | VFR | 300° | 8 kt | 10000 meters | 13° | 55° | 2° | 35° | 47% | 1011 mb | -29 ft | |||
| 04-五月 | 19:20 | VFR | 300° | 8 kt | 10000 meters | 14° | 57° | 3° | 37° | 47% | 1011 mb | 91 ft | |||
| 04-五月 | 18:50 | VFR | 310° | 8 kt | 10000 meters | 14° | 57° | 3° | 37° | 47% | 1011 mb | 91 ft | |||
| 04-五月 | 18:20 | VFR | 270° | 10 kt | 10000 meters | 15° | 59° | 2° | 35° | 41% | 1011 mb | 211 ft | |||
| 04-五月 | 17:50 | VFR | 270° | 10 kt | 10000 meters | 15° | 59° | 4° | 39° | 48% | 1011 mb | 211 ft | |||
| 04-五月 | 17:20 | VFR | 260° | 9 kt | 10000 meters | 15° | 59° | 4° | 39° | 48% | 1011 mb | 211 ft | |||
| 04-五月 | 16:50 | VFR | 290° | 11 kt | 10000 meters | 15° | 59° | 1° | 33° | 39% | 1011 mb | 211 ft | |||
| 04-五月 | 16:20 | VFR | 290° | 11 kt | 10000 meters | 15° | 59° | 1° | 33° | 39% | 1011 mb | 211 ft | |||
| 04-五月 | 15:50 | VFR | 300° | 12 kt | 10000 meters | 15° | 59° | 0° | 32° | 36% | 1011 mb | 211 ft | |||
| 04-五月 | 15:20 | VFR | 300° | 13 kt | 10000 meters | 15° | 59° | 0° | 32° | 36% | 1011 mb | 211 ft | |||
| 04-五月 | 14:50 | VFR | 300° | 13 kt | 10000 meters | 14° | 57° | 0° | 32° | 38% | 1011 mb | 91 ft | |||
| 04-五月 | 14:20 | VFR | 300° | 12 kt | 10000 meters | 16° | 60° | 4° | 39° | 45% | 1011 mb | 331 ft | |||
| 04-五月 | 13:50 | VFR | 280° | 11 kt | 10000 meters | 14° | 57° | 4° | 39° | 51% | 1011 mb | 91 ft | |||
| 04-五月 | 13:20 | VFR | 300° | 10 kt | 10000 meters | 14° | 57° | 2° | 35° | 44% | 1011 mb | 91 ft | |||
| 04-五月 | 12:50 | VFR | 260° | 12 kt | 10000 meters | 14° | 57° | 1° | 33° | 41% | 1011 mb | 91 ft |
登录
| 您的浏览器不支持. 升级您的浏览器 |
